Time;durP1;ratioP1;P1;durP2;ratioP2;P2;SDS_P1;SDS_P2;PMS_P1;PMS_P2;Temp;Humidity;BMP_temperature;BMP_pressure;BME280_temperature;BME280_humidity;BME280_pressure;Samples;Min_cycle;Max_cycle;Signal;HPM_P1;HPM_P2
2022/08/15 00:01:10;;;;;;;5.45;3.15;;;18.10;99.90;;;;;;5055434;28;20180;-83
2022/08/15 00:03:41;;;;;;;4.18;2.72;;;18.40;99.90;;;;;;5055174;28;20534;-83
2022/08/15 00:06:11;;;;;;;4.22;2.83;;;18.50;99.90;;;;;;5067574;28;20163;-83
2022/08/15 00:08:41;;;;;;;4.88;3.33;;;18.10;99.90;;;;;;5058985;28;20178;-85
2022/08/15 00:11:11;;;;;;;6.13;3.25;;;18.80;99.90;;;;;;5075899;28;20168;-83
2022/08/15 00:13:39;;;;;;;4.40;2.97;;;18.40;99.90;;;;;;5076716;28;20160;-82
2022/08/15 00:16:05;;;;;;;4.90;3.78;;;18.80;99.90;;;;;;5075735;28;20259;-83
2022/08/15 00:18:31;;;;;;;2.75;2.42;;;;;;;;;;5063539;28;20652;-83
2022/08/15 00:20:57;;;;;;;4.22;2.60;;;18.50;99.90;;;;;;5055172;28;20637;-83
2022/08/15 00:23:26;;;;;;;3.90;3.10;;;18.40;99.90;;;;;;5055366;28;20261;-83
2022/08/15 00:25:54;;;;;;;6.80;3.15;;;18.40;99.90;;;;;;5055480;28;20164;-82
2022/08/15 00:28:20;;;;;;;3.03;2.45;;;;;;;;;;5055131;28;20183;-83
2022/08/15 00:30:46;;;;;;;4.70;2.92;;;;;;;;;;5055388;28;20613;-82
2022/08/15 00:33:13;;;;;;;2.25;2.05;;;;;;;;;;5054981;28;20180;-82
2022/08/15 00:35:43;;;;;;;7.60;2.92;;;;;;;;;;5054886;28;20176;-82
2022/08/15 00:38:17;;;;;;;4.65;4.03;;;18.40;99.90;;;;;;5054943;28;20176;-82
2022/08/15 00:43:33;;;;;;;4.65;3.17;;;18.40;99.90;;;;;;5054739;28;20171;-82
2022/08/15 00:45:59;;;;;;;3.67;2.90;;;;;;;;;;5054550;28;20525;-82
2022/08/15 00:48:44;;;;;;;3.97;2.95;;;18.40;99.90;;;;;;5054656;28;20313;-83
2022/08/15 00:51:12;;;;;;;3.70;2.78;;;18.40;99.90;;;;;;5054842;28;20159;-83
2022/08/15 00:53:39;;;;;;;6.07;3.33;;;18.40;99.90;;;;;;5054548;28;20625;-82
2022/08/15 00:56:07;;;;;;;7.43;3.75;;;18.40;99.90;;;;;;5054560;28;20207;-83
2022/08/15 00:58:33;;;;;;;3.90;2.95;;;18.40;99.90;;;;;;5054439;28;20182;-83
2022/08/15 01:00:59;;;;;;;5.55;3.28;;;18.40;99.90;;;;;;5054537;28;20172;-83
2022/08/15 01:03:28;;;;;;;5.75;3.53;;;18.40;99.90;;;;;;5054362;28;20222;-84
2022/08/15 01:05:57;;;;;;;4.18;3.30;;;18.40;99.90;;;;;;5035787;28;20176;-83
2022/08/15 01:08:26;;;;;;;5.28;3.78;;;18.40;99.90;;;;;;5054257;28;20172;-83
2022/08/15 01:10:54;;;;;;;3.95;2.97;;;18.40;99.90;;;;;;5054696;28;20648;-83
2022/08/15 01:13:20;;;;;;;4.22;3.25;;;18.40;99.90;;;;;;5054264;28;20191;-83
2022/08/15 01:15:46;;;;;;;9.98;3.65;;;18.40;99.90;;;;;;5054072;28;20679;-83
2022/08/15 01:18:12;;;;;;;4.25;3.17;;;18.30;99.90;;;;;;5053972;28;20278;-83
2022/08/15 01:20:40;;;;;;;4.70;3.38;;;18.30;99.90;;;;;;5053964;28;20182;-83
2022/08/15 01:23:22;;;;;;;4.55;3.50;;;18.30;99.90;;;;;;5053971;28;20664;-83
2022/08/15 01:26:01;;;;;;;4.25;3.15;;;18.30;99.90;;;;;;5054202;28;20168;-83
2022/08/15 01:28:31;;;;;;;4.82;3.10;;;18.30;99.90;;;;;;5053769;28;20243;-83
2022/08/15 01:31:05;;;;;;;6.18;3.60;;;18.30;99.90;;;;;;5053984;28;20206;-83
2022/08/15 01:33:35;;;;;;;5.57;3.38;;;18.20;99.90;;;;;;5035948;28;20267;-83
2022/08/15 01:36:01;;;;;;;6.57;4.25;;;18.20;99.90;;;;;;5046401;28;20164;-83
2022/08/15 01:38:38;;;;;;;4.50;3.25;;;18.20;99.90;;;;;;5053829;28;20184;-84
2022/08/15 01:41:20;;;;;;;4.18;3.22;;;18.30;99.90;;;;;;5053962;28;20223;-83
2022/08/15 01:44:01;;;;;;;4.47;3.05;;;18.20;99.90;;;;;;5054105;28;20180;-83
2022/08/15 01:46:32;;;;;;;5.40;3.03;;;18.20;99.90;;;;;;5054031;28;20190;-86
2022/08/15 01:49:08;;;;;;;6.38;3.15;;;18.20;99.90;;;;;;5053917;28;20219;-82
2022/08/15 01:51:33;;;;;;;3.65;3.15;;;18.20;99.90;;;;;;5053619;28;20172;-83
2022/08/15 01:54:06;;;;;;;4.72;3.80;;;18.20;99.90;;;;;;5019341;28;20233;-82
2022/08/15 01:56:39;;;;;;;6.00;3.33;;;18.20;99.90;;;;;;5053192;28;20191;-83
2022/08/15 01:59:11;;;;;;;7.50;4.78;;;18.20;99.90;;;;;;5053439;28;20605;-83
2022/08/15 02:01:42;;;;;;;5.82;3.30;;;18.20;99.90;;;;;;5053273;28;20188;-83
2022/08/15 02:04:08;;;;;;;6.78;4.43;;;18.20;99.90;;;;;;5053529;28;20168;-83
2022/08/15 02:06:34;;;;;;;5.07;3.97;;;18.30;99.90;;;;;;5052979;28;20174;-82
2022/08/15 02:09:02;;;;;;;5.70;3.65;;;18.20;99.90;;;;;;5053437;28;20175;-82
2022/08/15 02:11:29;;;;;;;7.00;4.80;;;18.30;99.90;;;;;;5053394;28;20183;-83
2022/08/15 02:13:56;;;;;;;5.45;3.53;;;18.30;99.90;;;;;;5052859;28;20310;-83
2022/08/15 02:16:26;;;;;;;7.50;4.65;;;18.30;99.90;;;;;;5055705;28;20565;-83
2022/08/15 02:18:52;;;;;;;4.78;4.13;;;18.30;99.90;;;;;;5059802;28;20178;-83
2022/08/15 02:21:19;;;;;;;8.07;5.28;;;18.30;99.90;;;;;;5059710;28;20539;-83
2022/08/15 02:23:45;;;;;;;5.40;3.78;;;;;;;;;;5059687;28;20586;-83
2022/08/15 02:26:10;;;;;;;4.90;3.55;;;18.30;99.90;;;;;;5041891;28;20594;-83
2022/08/15 02:28:39;;;;;;;5.65;3.95;;;18.30;99.90;;;;;;5041871;28;20175;-83
2022/08/15 02:31:16;;;;;;;5.38;4.13;;;18.40;99.90;;;;;;5059555;28;20182;-83
2022/08/15 02:33:48;;;;;;;5.10;3.45;;;18.40;99.90;;;;;;5041793;28;20553;-83
2022/08/15 02:36:16;;;;;;;4.72;3.42;;;18.40;99.90;;;;;;5059831;28;20164;-83
2022/08/15 02:38:44;;;;;;;5.80;4.05;;;18.40;99.90;;;;;;5041644;28;20650;-82
2022/08/15 02:41:11;;;;;;;6.22;3.67;;;18.40;99.90;;;;;;5059628;28;20235;-83
2022/08/15 02:43:45;;;;;;;5.18;3.83;;;18.40;99.90;;;;;;5059343;28;20176;-81
2022/08/15 02:46:11;;;;;;;5.32;3.83;;;18.40;99.90;;;;;;5059831;28;20168;-83
2022/08/15 02:48:38;;;;;;;4.32;3.28;;;18.40;99.90;;;;;;5059692;28;20176;-85
2022/08/15 02:51:14;;;;;;;6.13;3.90;;;18.40;99.90;;;;;;5042200;28;20187;-84
2022/08/15 02:53:52;;;;;;;4.30;3.60;;;18.40;99.90;;;;;;5059449;28;20168;-83
2022/08/15 02:56:22;;;;;;;6.07;3.65;;;18.40;99.90;;;;;;5059767;28;20172;-83
2022/08/15 02:58:49;;;;;;;6.70;4.60;;;18.40;99.90;;;;;;5059514;28;20160;-83
2022/08/15 03:01:15;;;;;;;5.83;3.60;;;18.40;99.90;;;;;;5059490;28;20658;-83
2022/08/15 03:03:43;;;;;;;4.80;3.85;;;18.40;99.90;;;;;;5059434;28;20259;-83
2022/08/15 03:06:11;;;;;;;6.03;3.95;;;18.40;99.90;;;;;;5059152;28;20176;-82
2022/08/15 03:08:38;;;;;;;6.80;3.75;;;18.40;99.90;;;;;;5059442;28;20168;-83
2022/08/15 03:11:06;;;;;;;7.38;4.00;;;18.50;99.90;;;;;;5059370;28;20183;-83
2022/08/15 03:13:33;;;;;;;5.07;3.92;;;18.50;99.90;;;;;;5059572;28;20179;-83
2022/08/15 03:15:59;;;;;;;4.95;3.83;;;18.40;99.90;;;;;;5059255;28;20511;-84
2022/08/15 03:18:30;;;;;;;5.35;4.10;;;18.40;99.90;;;;;;5059365;28;20211;-83
2022/08/15 03:20:57;;;;;;;5.13;3.95;;;18.40;99.90;;;;;;5041336;28;20184;-85
2022/08/15 03:23:27;;;;;;;5.00;3.75;;;18.40;99.90;;;;;;5059503;28;20207;-83
2022/08/15 03:25:59;;;;;;;5.38;3.95;;;18.50;99.90;;;;;;5059265;28;20605;-83
2022/08/15 03:28:31;;;;;;;4.80;3.80;;;18.50;99.90;;;;;;5038703;28;20200;-84
2022/08/15 03:31:03;;;;;;;5.53;3.00;;;18.50;99.90;;;;;;5055984;28;20168;-83
2022/08/15 03:33:31;;;;;;;6.43;4.00;;;18.40;99.90;;;;;;5056167;28;20214;-83
2022/08/15 03:35:57;;;;;;;6.75;5.25;;;18.50;99.90;;;;;;5055963;28;20532;-84
2022/08/15 03:38:23;;;;;;;4.80;3.75;;;18.50;99.90;;;;;;5038241;28;20175;-85
2022/08/15 03:40:50;;;;;;;5.28;3.63;;;18.50;99.90;;;;;;5055377;28;20744;-86
2022/08/15 03:43:22;;;;;;;6.78;4.35;;;18.50;99.90;;;;;;5055505;28;20563;-85
2022/08/15 03:45:55;;;;;;;9.57;4.85;;;18.50;99.90;;;;;;5055729;28;20184;-85
2022/08/15 03:48:23;;;;;;;7.72;4.30;;;18.50;99.90;;;;;;5055777;28;20187;-85
2022/08/15 03:50:52;;;;;;;3.90;3.40;;;18.50;99.90;;;;;;5055672;28;20176;-85
2022/08/15 03:53:18;;;;;;;5.07;3.35;;;18.50;99.90;;;;;;5055578;28;20184;-85
2022/08/15 03:55:44;;;;;;;4.28;3.50;;;18.50;99.90;;;;;;5037882;28;20187;-84
2022/08/15 03:58:11;;;;;;;6.75;4.75;;;18.50;99.90;;;;;;5055849;28;20172;-84
2022/08/15 04:00:47;;;;;;;6.75;3.85;;;18.50;99.90;;;;;;5055667;28;20194;-84
2022/08/15 04:03:23;;;;;;;7.82;4.32;;;18.50;99.90;;;;;;5037747;28;20209;-84
2022/08/15 04:05:53;;;;;;;6.78;4.28;;;18.50;99.90;;;;;;5055266;28;20180;-86
2022/08/15 04:08:22;;;;;;;8.20;4.03;;;18.50;99.90;;;;;;5055128;28;20179;-85
2022/08/15 04:10:50;;;;;;;5.55;3.72;;;18.50;99.90;;;;;;5055332;28;20266;-85
2022/08/15 04:13:25;;;;;;;4.95;3.67;;;18.60;99.90;;;;;;5055313;28;20177;-85
2022/08/15 04:15:56;;;;;;;4.65;3.90;;;18.60;99.90;;;;;;5055082;28;20170;-88
2022/08/15 04:18:24;;;;;;;5.28;4.03;;;18.60;99.90;;;;;;5054652;28;20172;-85
2022/08/15 04:20:51;;;;;;;4.80;3.35;;;18.60;99.90;;;;;;5054123;28;20176;-85
2022/08/15 04:23:17;;;;;;;5.25;3.85;;;18.70;99.90;;;;;;5055054;28;20638;-85
2022/08/15 04:25:43;;;;;;;6.63;4.07;;;18.70;99.90;;;;;;5055409;28;20220;-85
2022/08/15 04:28:13;;;;;;;5.65;3.72;;;18.70;99.90;;;;;;5054631;28;20637;-84
2022/08/15 04:30:40;;;;;;;7.85;5.03;;;18.70;99.90;;;;;;5055044;28;20175;-84
2022/08/15 04:33:15;;;;;;;7.18;4.35;;;18.70;99.90;;;;;;5036915;28;20179;-85
2022/08/15 04:35:43;;;;;;;6.32;3.40;;;18.80;99.90;;;;;;5055025;28;20195;-85
2022/08/15 04:38:09;;;;;;;7.38;5.32;;;18.80;99.90;;;;;;5054615;28;20171;-86
2022/08/15 04:40:35;;;;;;;4.97;3.65;;;18.80;99.90;;;;;;5035232;28;20250;-86
2022/08/15 04:43:01;;;;;;;5.20;3.47;;;18.80;99.90;;;;;;5053875;28;20198;-87
2022/08/15 04:45:30;;;;;;;5.47;3.95;;;18.90;99.90;;;;;;5053177;28;20187;-86
2022/08/15 04:47:56;;;;;;;5.63;4.03;;;18.90;99.90;;;;;;5052002;28;20265;-87
2022/08/15 04:50:22;;;;;;;14.75;5.40;;;18.90;99.90;;;;;;5051468;28;20255;-86
2022/08/15 04:52:55;;;;;;;6.10;4.70;;;18.90;99.90;;;;;;5051717;28;20255;-87
2022/08/15 04:55:24;;;;;;;4.93;4.40;;;18.90;99.90;;;;;;5052059;28;20687;-85
2022/08/15 04:57:51;;;;;;;9.05;4.88;;;19.00;99.90;;;;;;5052098;28;20258;-85
2022/08/15 05:00:19;;;;;;;5.05;3.17;;;19.10;99.90;;;;;;5052527;28;20180;-83
2022/08/15 05:03:04;;;;;;;5.35;4.05;;;19.10;99.90;;;;;;5034000;28;20199;-84
2022/08/15 05:05:32;;;;;;;7.68;4.60;;;19.10;99.90;;;;;;5052022;28;20194;-87
2022/08/15 05:07:58;;;;;;;7.13;4.47;;;19.20;99.90;;;;;;5052321;28;20255;-87
2022/08/15 05:10:24;;;;;;;5.15;4.25;;;19.20;99.90;;;;;;5052620;28;20242;-85
2022/08/15 05:12:50;;;;;;;3.28;2.97;;;19.20;99.90;;;;;;5053005;28;20691;-84
2022/08/15 05:15:18;;;;;;;6.85;4.05;;;19.30;99.90;;;;;;5035041;28;20176;-83
2022/08/15 05:17:45;;;;;;;8.88;5.88;;;19.30;99.90;;;;;;5052962;28;20175;-83
2022/08/15 05:20:12;;;;;;;8.65;5.72;;;19.30;99.90;;;;;;5052599;28;20195;-86
2022/08/15 05:23:11;;;;;;;6.15;4.57;;;19.40;99.90;;;;;;5052727;28;20211;-83
2022/08/15 05:25:39;;;;;;;6.10;4.15;;;19.50;99.90;;;;;;5050135;28;20276;-86
2022/08/15 05:28:05;;;;;;;5.25;3.85;;;19.50;99.90;;;;;;5051204;28;20184;-83
2022/08/15 05:30:32;;;;;;;5.75;4.10;;;19.60;99.90;;;;;;5050893;28;20199;-84
2022/08/15 05:33:13;;;;;;;6.28;4.15;;;19.60;99.90;;;;;;5051050;28;20176;-84
2022/08/15 05:35:45;;;;;;;5.30;4.00;;;19.60;99.90;;;;;;5051181;28;20326;-85
2022/08/15 05:38:21;;;;;;;6.72;4.72;;;19.60;99.90;;;;;;5050373;28;20183;-86
2022/08/15 05:41:06;;;;;;;6.25;4.22;;;19.60;99.90;;;;;;5050298;28;20700;-85
2022/08/15 05:43:53;;;;;;;5.63;3.78;;;19.70;99.90;;;;;;5050686;28;20208;-87
2022/08/15 05:46:35;;;;;;;6.75;4.82;;;19.80;99.90;;;;;;5050991;28;20183;-84
2022/08/15 05:49:26;;;;;;;7.13;4.57;;;20.00;99.90;;;;;;5051977;28;20160;-85
2022/08/15 05:52:14;;;;;;;9.15;5.68;;;20.10;99.90;;;;;;4995592;28;20200;-86
2022/08/15 05:54:42;;;;;;;10.38;4.90;;;20.20;99.90;;;;;;5033253;28;20163;-86
2022/08/15 05:57:33;;;;;;;6.32;3.97;;;20.20;99.90;;;;;;5050503;28;20176;-85
2022/08/15 06:00:05;;;;;;;6.80;4.38;;;20.30;99.90;;;;;;5032456;28;20314;-84
2022/08/15 06:02:37;;;;;;;8.77;5.22;;;20.40;99.90;;;;;;5049854;28;20204;-83
2022/08/15 06:05:08;;;;;;;8.38;4.93;;;20.50;99.90;;;;;;5049520;28;20508;-84
2022/08/15 06:07:34;;;;;;;7.10;5.22;;;;;;;;;;5050724;28;20164;-84
2022/08/15 06:10:23;;;;;;;5.97;4.30;;;20.60;99.90;;;;;;5051017;28;20176;-86
2022/08/15 06:12:51;;;;;;;5.82;4.15;;;20.60;99.90;;;;;;5033417;28;20180;-85
2022/08/15 06:15:25;;;;;;;8.40;4.90;;;20.70;99.90;;;;;;5033121;28;20172;-85
2022/08/15 06:17:58;;;;;;;5.85;4.32;;;20.70;99.90;;;;;;5050866;28;20167;-86
2022/08/15 06:21:10;;;;;;;6.90;4.28;;;20.70;99.90;;;;;;5050143;28;20176;-85
2022/08/15 06:24:00;;;;;;;6.05;4.53;;;20.80;99.90;;;;;;5013472;28;20411;-85
2022/08/15 06:26:54;;;;;;;6.57;4.53;;;20.90;99.90;;;;;;5031985;28;20314;-85
2022/08/15 06:30:03;;;;;;;6.70;4.22;;;21.10;99.90;;;;;;5049241;28;20166;-85
2022/08/15 06:32:46;;;;;;;8.13;5.05;;;21.20;99.90;;;;;;5049667;28;20262;-85
2022/08/15 06:35:17;;;;;;;6.47;4.45;;;21.40;99.90;;;;;;5050791;28;20644;-84
2022/08/15 06:38:15;;;;;;;7.97;5.10;;;21.50;99.90;;;;;;5051526;28;20161;-84
2022/08/15 06:41:12;;;;;;;6.80;5.35;;;21.60;99.90;;;;;;5027335;28;20257;-85
2022/08/15 06:43:38;;;;;;;7.93;5.07;;;21.80;99.90;;;;;;5048146;28;20306;-86
2022/08/15 06:46:05;;;;;;;7.13;5.10;;;22.00;99.90;;;;;;5051076;28;20187;-85
2022/08/15 06:48:34;;;;;;;5.95;4.00;;;22.20;99.90;;;;;;5049447;28;20177;-86
2022/08/15 06:51:02;;;;;;;6.85;5.03;;;22.20;99.90;;;;;;5042648;28;20180;-85
2022/08/15 06:53:42;;;;;;;6.43;4.45;;;22.30;99.90;;;;;;5050519;28;20537;-85
2022/08/15 06:56:46;;;;;;;7.28;4.70;;;22.30;99.90;;;;;;5050194;28;20164;-87
2022/08/15 06:59:26;;;;;;;7.95;5.13;;;22.30;99.90;;;;;;5050304;28;20630;-86
2022/08/15 07:02:36;;;;;;;6.32;4.43;;;22.30;99.90;;;;;;5050234;28;20245;-86
2022/08/15 07:05:17;;;;;;;6.88;3.88;;;21.90;99.90;;;;;;5053833;28;20164;-86
2022/08/15 07:07:45;;;;;;;8.52;4.80;;;22.20;99.90;;;;;;5053885;28;20182;-90
2022/08/15 07:10:50;;;;;;;8.98;5.15;;;22.20;99.90;;;;;;5053619;28;20187;-86
2022/08/15 07:13:25;;;;;;;6.40;4.68;;;22.30;99.90;;;;;;5048871;28;20198;-85
2022/08/15 07:16:30;;;;;;;7.78;4.78;;;22.30;99.90;;;;;;5053557;28;20166;-84
2022/08/15 07:18:59;;;;;;;5.53;4.10;;;22.30;99.90;;;;;;4996060;28;20227;-84
2022/08/15 07:21:25;;;;;;;6.90;4.78;;;22.40;99.90;;;;;;5054677;28;20186;-85
2022/08/15 07:24:24;;;;;;;7.78;5.28;;;22.40;99.90;;;;;;5055264;28;20176;-85
2022/08/15 07:26:59;;;;;;;6.40;4.75;;;22.50;99.90;;;;;;5055290;28;20245;-85
2022/08/15 07:29:29;;;;;;;7.38;4.82;;;22.60;99.90;;;;;;5055246;28;20172;-86
2022/08/15 07:32:35;;;;;;;10.60;5.93;;;22.80;99.90;;;;;;5053482;28;20222;-89
2022/08/15 07:35:11;;;;;;;6.53;4.93;;;22.90;99.90;;;;;;5035220;28;20176;-88
2022/08/15 07:37:55;;;;;;;8.93;4.80;;;23.00;99.90;;;;;;5053076;28;20172;-86
2022/08/15 07:40:34;;;;;;;9.80;4.93;;;23.20;99.90;;;;;;5054071;28;20676;-86
2022/08/15 07:43:05;;;;;;;8.98;5.25;;;23.30;99.90;;;;;;5035844;28;20204;-87
2022/08/15 07:45:41;;;;;;;8.68;4.47;;;23.40;99.90;;;;;;5053569;28;20271;-86
2022/08/15 07:48:28;;;;;;;6.15;4.20;;;23.60;99.90;;;;;;5018977;28;20190;-87
2022/08/15 07:51:06;;;;;;;7.90;4.60;;;23.80;99.90;;;;;;5054011;28;20172;-86
2022/08/15 07:53:31;;;;;;;6.80;5.07;;;23.80;99.90;;;;;;5052330;28;20190;-88
2022/08/15 07:56:13;;;;;;;7.32;4.97;;;23.80;99.90;;;;;;5052709;28;20172;-86
2022/08/15 07:58:42;;;;;;;5.43;4.00;;;23.80;99.90;;;;;;5052466;28;20163;-86
2022/08/15 08:01:13;;;;;;;7.88;4.80;;;23.90;99.90;;;;;;5052098;28;20172;-87
2022/08/15 08:03:45;;;;;;;9.73;5.65;;;23.90;99.90;;;;;;5034846;28;20207;-87
2022/08/15 08:06:31;;;;;;;8.40;5.65;;;23.80;99.90;;;;;;5052421;28;20582;-87
2022/08/15 08:09:30;;;;;;;9.60;5.15;;;23.80;99.90;;;;;;5034141;28;20262;-86
2022/08/15 08:12:14;;;;;;;6.60;4.25;;;23.80;99.90;;;;;;5052408;28;20192;-87
2022/08/15 08:15:17;;;;;;;5.90;4.35;;;23.80;99.90;;;;;;5034407;28;20180;-87
2022/08/15 08:17:52;;;;;;;6.15;4.28;;;23.80;99.90;;;;;;5052742;28;20171;-85
2022/08/15 08:20:32;;;;;;;7.15;4.53;;;23.40;99.90;;;;;;5033346;28;20524;-85
2022/08/15 08:23:30;;;;;;;9.02;4.43;;;23.90;99.90;;;;;;5034516;28;20211;-87
2022/08/15 08:26:15;;;;;;;6.95;4.35;;;23.90;99.90;;;;;;5053866;28;20176;-87
2022/08/15 08:28:52;;;;;;;4.28;3.78;;;24.00;99.90;;;;;;5054986;28;20165;-86
2022/08/15 08:31:23;;;;;;;7.82;4.80;;;24.20;99.90;;;;;;5053744;28;20160;-86
2022/08/15 08:34:19;;;;;;;6.88;4.47;;;24.30;99.90;;;;;;5053218;28;20203;-87
2022/08/15 08:37:12;;;;;;;7.47;4.88;;;24.60;99.90;;;;;;5055444;28;20157;-86
2022/08/15 08:39:40;;;;;;;12.55;5.90;;;24.90;99.90;;;;;;5053425;28;20172;-85
2022/08/15 08:42:30;;;;;;;5.68;4.53;;;25.00;99.90;;;;;;5035728;28;20199;-87
2022/08/15 08:45:24;;;;;;;6.70;4.70;;;25.10;99.90;;;;;;5053310;28;20210;-87
2022/08/15 08:48:22;;;;;;;7.70;5.05;;;25.20;99.90;;;;;;5036229;28;20313;-84
2022/08/15 08:50:56;;;;;;;5.55;4.25;;;25.40;99.90;;;;;;5036127;28;20638;-85
2022/08/15 08:53:44;;;;;;;7.93;4.60;;;25.40;99.90;;;;;;5053636;28;20193;-86
2022/08/15 08:56:24;;;;;;;10.18;5.05;;;25.70;99.90;;;;;;5054953;28;20617;-86
2022/08/15 08:59:02;;;;;;;4.63;3.55;;;25.60;99.90;;;;;;5054029;28;20172;-84
2022/08/15 09:01:29;;;;;;;7.13;4.13;;;25.60;99.90;;;;;;5035480;28;20253;-84
2022/08/15 09:04:04;;;;;;;7.00;4.70;;;25.70;99.90;;;;;;5053358;28;20216;-83
2022/08/15 09:06:37;;;;;;;4.72;3.90;;;25.70;99.90;;;;;;5053973;28;20168;-83
2022/08/15 09:09:27;;;;;;;5.43;3.67;;;25.60;99.90;;;;;;5053597;28;20168;-83
2022/08/15 09:14:51;;;;;;;8.07;4.18;;;25.80;99.90;;;;;;5053938;28;20322;-86
2022/08/15 09:17:17;;;;;;;5.80;3.85;;;;;;;;;;5053926;28;20258;-83
2022/08/15 09:19:53;;;;;;;4.78;3.17;;;28.20;99.90;;;;;;5035593;28;20190;-84
2022/08/15 09:22:19;;;;;;;5.82;3.67;;;;;;;;;;5053223;28;20203;-85
2022/08/15 09:24:45;;;;;;;5.30;3.60;;;;;;;;;;5053521;28;20644;-84
2022/08/15 09:27:35;;;;;;;5.68;4.03;;;26.40;99.90;;;;;;5052596;28;20212;-84
2022/08/15 09:30:08;;;;;;;7.55;4.15;;;25.90;99.90;;;;;;5053926;28;20218;-83
2022/08/15 09:32:48;;;;;;;6.43;4.10;;;26.20;99.90;;;;;;5054146;28;20186;-85
2022/08/15 09:35:45;;;;;;;5.60;3.47;;;26.20;99.90;;;;;;5053381;28;20254;-84
2022/08/15 09:38:30;;;;;;;5.55;3.75;;;25.80;99.90;;;;;;5053274;28;20182;-84
2022/08/15 09:41:11;;;;;;;4.82;3.53;;;26.40;99.90;;;;;;5057928;28;20287;-88
2022/08/15 09:44:00;;;;;;;5.10;3.55;;;25.80;99.90;;;;;;5050561;28;20683;-84
2022/08/15 09:46:26;;;;;;;9.70;3.35;;;;;;;;;;5052929;28;20263;-84
2022/08/15 09:49:19;;;;;;;5.35;3.72;;;26.80;99.90;;;;;;5053409;28;20715;-88
2022/08/15 09:51:50;;;;;;;5.00;3.60;;;27.00;99.90;;;;;;5052944;28;20188;-87
2022/08/15 09:54:18;;;;;;;12.77;4.03;;;;;;;;;;5035522;28;20180;-87
2022/08/15 09:56:44;;;;;;;4.38;3.05;;;26.70;99.90;;;;;;5035304;28;20320;-85
2022/08/15 09:59:15;;;;;;;5.88;3.90;;;27.00;99.90;;;;;;5034812;28;20183;-83
2022/08/15 10:01:43;;;;;;;4.78;3.35;;;;;;;;;;5064564;28;20160;-84
2022/08/15 10:04:12;;;;;;;5.32;3.58;;;27.10;99.90;;;;;;5062798;28;20179;-86
2022/08/15 10:07:02;;;;;;;5.85;3.72;;;27.10;99.90;;;;;;5053740;28;20187;-86
2022/08/15 10:09:28;;;;;;;5.57;3.13;;;;;;;;;;5053013;28;20637;-87
2022/08/15 10:12:18;;;;;;;7.05;4.25;;;27.30;99.90;;;;;;5053030;28;20190;-85
2022/08/15 10:14:44;;;;;;;5.22;3.83;;;;;;;;;;5052866;28;20160;-84
2022/08/15 10:17:37;;;;;;;4.70;3.28;;;27.20;99.90;;;;;;5053200;28;20570;-85
2022/08/15 10:20:18;;;;;;;5.97;4.30;;;26.60;99.90;;;;;;5034945;28;20536;-85
2022/08/15 10:23:15;;;;;;;3.80;3.13;;;26.20;99.90;;;;;;5053078;28;20199;-84
2022/08/15 10:25:45;;;;;;;4.20;3.22;;;26.40;99.90;;;;;;5033849;28;20219;-87
2022/08/15 10:28:11;;;;;;;4.40;3.33;;;;;;;;;;5034480;28;20206;-86
2022/08/15 10:30:45;;;;;;;4.65;3.20;;;26.40;99.90;;;;;;5052597;28;20207;-87
2022/08/15 10:33:32;;;;;;;5.10;2.83;;;26.30;99.90;;;;;;5052117;28;20172;-85
2022/08/15 10:36:16;;;;;;;5.25;3.42;;;25.50;99.90;;;;;;5052332;28;20278;-84
2022/08/15 10:38:50;;;;;;;4.93;3.78;;;26.30;99.90;;;;;;5039279;28;20200;-83
2022/08/15 10:41:24;;;;;;;5.40;3.35;;;26.00;99.90;;;;;;5057463;28;20227;-84
2022/08/15 10:44:00;;;;;;;4.82;3.17;;;26.10;99.90;;;;;;5057634;28;20196;-86
2022/08/15 10:46:26;;;;;;;4.90;3.47;;;;;;;;;;5056620;28;20171;-84
2022/08/15 10:48:52;;;;;;;5.07;3.45;;;;;;;;;;5038233;28;20233;-83
2022/08/15 10:51:31;;;;;;;6.03;3.40;;;26.10;99.90;;;;;;5056124;28;20176;-86
2022/08/15 10:54:35;;;;;;;4.65;3.17;;;25.80;99.90;;;;;;5056225;28;20163;-82
2022/08/15 10:57:02;;;;;;;4.38;3.17;;;;;;;;;;5038356;28;20207;-85
2022/08/15 10:59:43;;;;;;;5.88;3.92;;;26.00;99.90;;;;;;5055326;28;20604;-84
2022/08/15 11:02:09;;;;;;;4.70;3.15;;;;;;;;;;5055535;28;20187;-85
2022/08/15 11:04:37;;;;;;;3.83;2.72;;;26.10;99.90;;;;;;5037775;28;20183;-83
2022/08/15 11:07:28;;;;;;;5.30;3.53;;;25.60;99.90;;;;;;5055795;28;20207;-84
2022/08/15 11:09:56;;;;;;;6.63;3.67;;;26.10;99.90;;;;;;5037271;28;20207;-84
2022/08/15 11:12:24;;;;;;;5.45;3.22;;;26.00;99.90;;;;;;5055191;28;20186;-83
2022/08/15 11:14:59;;;;;;;4.50;2.97;;;25.90;99.90;;;;;;5055805;28;20179;-85
2022/08/15 11:17:28;;;;;;;6.78;3.45;;;25.80;99.90;;;;;;5037406;28;20190;-84
2022/08/15 11:20:04;;;;;;;5.03;3.63;;;25.70;99.90;;;;;;5055276;28;20188;-85
2022/08/15 11:22:37;;;;;;;5.50;3.20;;;25.60;99.90;;;;;;5055188;28;20199;-85
2022/08/15 11:25:14;;;;;;;5.38;3.00;;;25.40;99.90;;;;;;5055615;28;20171;-85
2022/08/15 11:27:40;;;;;;;7.30;3.78;;;;;;;;;;5055625;28;20167;-85
2022/08/15 11:30:19;;;;;;;5.53;3.03;;;24.50;99.90;;;;;;5055287;28;20172;-83
2022/08/15 11:32:45;;;;;;;3.45;2.55;;;;;;;;;;5039324;28;20207;-84
2022/08/15 11:35:27;;;;;;;4.10;2.72;;;24.30;99.90;;;;;;5021506;28;20736;-83
2022/08/15 11:37:56;;;;;;;4.05;2.38;;;24.30;99.90;;;;;;5055415;28;20179;-83
2022/08/15 11:40:22;;;;;;;4.05;2.83;;;;;;;;;;5055410;28;20318;-85
2022/08/15 11:42:49;;;;;;;3.65;2.65;;;24.70;99.90;;;;;;5054537;28;20712;-86
2022/08/15 11:45:26;;;;;;;3.78;2.55;;;24.70;99.90;;;;;;5055438;28;20196;-84
2022/08/15 11:47:57;;;;;;;4.20;2.90;;;24.60;99.90;;;;;;5055045;28;20178;-84
2022/08/15 11:50:23;;;;;;;2.95;2.30;;;;;;;;;;5054117;28;20623;-84
2022/08/15 11:52:54;;;;;;;4.82;3.20;;;24.60;99.90;;;;;;5037678;28;20190;-84
2022/08/15 11:55:27;;;;;;;4.85;2.80;;;25.20;99.90;;;;;;5054909;28;20160;-85
2022/08/15 11:58:03;;;;;;;4.10;2.67;;;25.00;99.90;;;;;;5054781;28;20250;-84
2022/08/15 12:00:44;;;;;;;4.50;2.85;;;24.50;99.90;;;;;;5054659;28;20274;-85
2022/08/15 12:03:16;;;;;;;7.35;2.90;;;24.50;99.90;;;;;;5054733;28;20583;-84
2022/08/15 12:05:43;;;;;;;4.30;3.00;;;;;;;;;;5055045;28;20704;-85
2022/08/15 12:08:08;;;;;;;2.78;2.35;;;24.20;99.90;;;;;;5055181;28;20203;-88
2022/08/15 12:10:40;;;;;;;6.22;2.67;;;24.10;99.90;;;;;;5055013;28;20207;-84
2022/08/15 12:13:07;;;;;;;4.68;2.70;;;24.20;99.90;;;;;;5054972;28;20174;-86
2022/08/15 12:15:33;;;;;;;4.05;2.58;;;;;;;;;;5054661;28;20186;-85
2022/08/15 12:18:11;;;;;;;3.95;2.72;;;24.30;99.90;;;;;;5046469;28;20516;-86
2022/08/15 12:20:54;;;;;;;3.85;2.30;;;24.30;99.90;;;;;;5054493;28;20164;-83
2022/08/15 12:23:52;;;;;;;4.03;2.60;;;24.30;99.90;;;;;;5054470;28;20195;-83
2022/08/15 12:26:20;;;;;;;3.58;2.63;;;24.30;99.90;;;;;;5054395;28;20179;-83
2022/08/15 12:28:46;;;;;;;6.22;3.08;;;;;;;;;;5036348;28;20622;-84
2022/08/15 12:31:34;;;;;;;4.35;2.30;;;24.30;99.90;;;;;;5054102;28;20649;-83
2022/08/15 12:34:13;;;;;;;5.82;2.65;;;24.30;99.90;;;;;;5054480;28;20172;-84
2022/08/15 12:36:43;;;;;;;2.67;1.98;;;24.30;99.90;;;;;;5053754;28;20183;-84
2022/08/15 12:39:12;;;;;;;4.85;2.97;;;24.40;99.90;;;;;;5054190;28;20195;-85
2022/08/15 12:41:41;;;;;;;11.63;2.83;;;;;;;;;;5054512;28;20223;-86
2022/08/15 12:44:18;;;;;;;3.65;2.72;;;24.60;99.90;;;;;;5053890;28;20183;-82
2022/08/15 12:46:44;;;;;;;4.20;2.50;;;;;;;;;;5035954;28;20529;-87
2022/08/15 12:49:09;;;;;;;5.43;3.45;;;24.20;99.90;;;;;;5035814;28;20184;-84
2022/08/15 12:51:35;;;;;;;4.88;2.40;;;;;;;;;;5053611;28;20195;-85
2022/08/15 12:54:01;;;;;;;4.47;2.70;;;;;;;;;;5053868;28;20176;-85
2022/08/15 12:56:27;;;;;;;9.80;3.35;;;;;;;;;;5053756;28;20324;-83
2022/08/15 12:58:53;;;;;;;4.57;2.63;;;;;;;;;;5035757;28;20263;-84
2022/08/15 13:01:19;;;;;;;7.05;2.88;;;24.90;99.90;;;;;;5035704;28;20175;-85
2022/08/15 13:03:46;;;;;;;3.90;3.17;;;24.90;99.90;;;;;;5053507;28;20203;-90
2022/08/15 13:06:29;;;;;;;5.55;2.30;;;25.50;99.90;;;;;;5053542;28;20625;-85
2022/08/15 13:08:55;;;;;;;6.72;3.17;;;;;;;;;;5053468;28;20168;-86
2022/08/15 13:11:22;;;;;;;3.67;2.53;;;24.80;99.90;;;;;;5054217;28;20176;-86
2022/08/15 13:13:49;;;;;;;3.03;2.72;;;24.80;99.90;;;;;;5054084;28;20176;-85
2022/08/15 13:16:16;;;;;;;3.55;2.30;;;;;;;;;;5054149;28;20176;-84
2022/08/15 13:18:42;;;;;;;4.00;2.65;;;;;;;;;;5036589;28;20218;-83
2022/08/15 13:23:52;;;;;;;7.18;3.38;;;25.30;99.90;;;;;;5038618;28;20261;-83
2022/08/15 13:26:20;;;;;;;3.50;2.45;;;24.70;99.90;;;;;;5053654;28;20184;-83
2022/08/15 13:28:48;;;;;;;3.58;2.97;;;24.70;99.90;;;;;;5054035;28;20210;-84
2022/08/15 13:31:18;;;;;;;5.10;3.35;;;24.70;99.90;;;;;;5068988;28;20164;-84
2022/08/15 13:33:48;;;;;;;3.55;2.45;;;24.70;99.90;;;;;;5054399;28;20262;-83
2022/08/15 13:36:18;;;;;;;4.57;3.13;;;24.60;99.90;;;;;;5058696;28;20203;-83
2022/08/15 13:38:47;;;;;;;3.95;3.28;;;24.60;99.90;;;;;;5053932;28;20178;-84
2022/08/15 13:41:19;;;;;;;4.45;2.72;;;24.60;99.90;;;;;;5053853;28;20251;-84